Main page
METAR-TAF:

METAR-TAF

Airports :

Hof, Germany

Hof–Plauen Airport

latitude: 50-19N, longitude: 011-53E, elevation: 567 m

Current weather observation

The report was made 27 minutes ago, at 09:20 UTC
Wind 9 kt from the West/Southwest
Temperature 2°C
Humidity 87%
Pressure 1022 hPa
Visibility: 6000 m
Few clouds at a height of 500 ft
Scattered clouds at a height of 900 ft
Overcast at a height of 5300 ft

METAR: EDQM 230920Z 25009KT 6000 FEW005 SCT009 OVC053 02/00 Q1022

Time: 10:47 (09:47 UTC)

Forecast

The report was made 1 hour and 47 minutes ago, at 08:00 UTC
Forecast valid from 23 at 09 UTC to 23 at 18 UTC
Wind 7 kt from the Southwest
Visibility 10 km or more
Scattered clouds at a height of 800 ft
Broken clouds at a height of 2000 ft
Temporary
from 23 at 09 UTC to 23 at 14 UTC
Broken clouds at a height of 600 ft

TAF: EDQM 230800Z 2309/2318 23007KT 9999 SCT008 BKN020 TEMPO 2309/2314 BKN006

Weather observations and forecasts of more than 4000 airports (METAR and TAF reports).

The available stations are represented by yellow and red dots on the map.

Hover mouse over dot to see the name of the station.

Then click to see weather observations and forecasts.

To change the map : click on the green buttons with a black cross to zoom in, on the green button with a dash to zoom out, or on the green arrows for adjacent maps.


METAR-TAF: